sensor_id;sensor_type;location;lat;lon;timestamp;pressure;altitude;pressure_sealevel;temperature;humidity
15558;BME280;7880;50.110;9.372;2023-05-25T00:02:54;6.367892459366703;;;6.187;100.0
15558;BME280;7880;50.110;9.372;2023-05-25T00:07:57;6.589743478881428;;;6.437;100.0
15558;BME280;7880;50.110;9.372;2023-05-25T00:13:02;6.509070315683493;;;6.437;100.0
15558;BME280;7880;50.110;9.372;2023-05-25T00:18:07;6.377976584393764;;;6.25;100.0
15558;BME280;7880;50.110;9.372;2023-05-25T00:23:12;6.262009216868319;;;6.062;100.0
15558;BME280;7880;50.110;9.372;2023-05-25T00:28:19;6.357808335503796;;;6.25;100.0
15558;BME280;7880;50.110;9.372;2023-05-25T00:33:21;6.317471851693699;;;6.25;100.0
15558;BME280;7880;50.110;9.372;2023-05-25T00:38:28;6.287219501059735;;;6.187;100.0
15558;BME280;7880;50.110;9.372;2023-05-25T00:43:31;5.974612491350854;;;5.937;100.0
15558;BME280;7880;50.110;9.372;2023-05-25T00:48:38;6.100663570337929;;;5.875;100.0
15558;BME280;7880;50.110;9.372;2023-05-25T00:53:46;5.929234147444367;;;5.875;100.0
15558;BME280;7880;50.110;9.372;2023-05-25T00:58:53;5.883855827111984;;;5.812;100.0
15558;BME280;7880;50.110;9.372;2023-05-25T01:03:56;5.838477530353702;;;5.75;100.0
15558;BME280;7880;50.110;9.372;2023-05-25T01:09:03;5.989738611225039;;;5.75;100.0
15558;BME280;7880;50.110;9.372;2023-05-25T01:14:05;5.727552904188633;;;5.625;100.0
15558;BME280;7880;50.110;9.372;2023-05-25T01:19:10;5.737636955291964;;;5.625;100.0
15558;BME280;7880;50.110;9.372;2023-05-25T01:24:21;5.843519562162692;;;5.75;100.0
15558;BME280;7880;50.110;9.372;2023-05-25T01:29:22;5.727552904188633;;;5.687;100.0
15558;BME280;7880;50.110;9.372;2023-05-25T01:34:23;5.283855808153748;;;5.25;100.0
15558;BME280;7880;50.110;9.372;2023-05-25T01:39:26;5.359485835634405;;;5.312;100.0
15558;BME280;7880;50.110;9.372;2023-05-25T01:44:31;4.961168426647783;;;5.062;100.0
15558;BME280;7880;50.110;9.372;2023-05-25T01:49:42;5.3947798708686605;;;5.312;100.0
15558;BME280;7880;50.110;9.372;2023-05-25T01:54:43;5.137637940706918;;;5.125;100.0
15558;BME280;7880;50.110;9.372;2023-05-25T01:59:46;4.930916545749642;;;5.062;100.0
15558;BME280;7880;50.110;9.372;2023-05-25T02:04:52;5.0216722198762;;;5.0;100.0
15558;BME280;7880;50.110;9.372;2023-05-25T02:09:56;5.001504284143448;;;4.937;100.0
15558;BME280;7880;50.110;9.372;2023-05-25T02:15:10;5.001504284143448;;;4.875;100.0
15558;BME280;7880;50.110;9.372;2023-05-25T02:20:18;5.359485835634405;;;5.25;100.0
15558;BME280;7880;50.110;9.372;2023-05-25T02:25:17;5.3796538540220356;;;5.25;100.0
15558;BME280;7880;50.110;9.372;2023-05-25T02:30:21;5.697300757863559;;;5.562;100.0
15558;BME280;7880;50.110;9.372;2023-05-25T02:35:28;5.430073920363793;;;5.375;100.0
15558;BME280;7880;50.110;9.372;2023-05-25T02:40:37;5.37461184898857;;;5.375;100.0
15558;BME280;7880;50.110;9.372;2023-05-25T02:45:46;5.238477823097492;;;5.125;100.0
15558;BME280;7880;50.110;9.372;2023-05-25T02:50:51;5.460325974138686;;;5.375;100.0
15558;BME280;7880;50.110;9.372;2023-05-25T02:55:53;5.213267841585912;;;5.25;100.0
15558;BME280;7880;50.110;9.372;2023-05-25T03:01:04;5.344359824899584;;;5.312;100.0
15558;BME280;7880;50.110;9.372;2023-05-25T03:06:07;5.389737864962081;;;5.375;100.0
15558;BME280;7880;50.110;9.372;2023-05-25T03:11:15;5.278813808650011;;;5.25;100.0
15558;BME280;7880;50.110;9.372;2023-05-25T03:16:15;5.349401828186819;;;5.312;100.0
15558;BME280;7880;50.110;9.372;2023-05-25T03:21:21;5.283855808153748;;;5.25;100.0
15558;BME280;7880;50.110;9.372;2023-05-25T03:26:28;5.122511968389153;;;5.125;100.0
15558;BME280;7880;50.110;9.372;2023-05-25T03:31:34;5.440157937124605;;;5.312;100.0
15558;BME280;7880;50.110;9.372;2023-05-25T03:36:45;5.591418328235159;;;5.5;100.0
15558;BME280;7880;50.110;9.372;2023-05-25T03:41:47;5.631754476769129;;;5.562;100.0
15558;BME280;7880;50.110;9.372;2023-05-25T03:46:52;5.137637940706918;;;5.25;100.0
15558;BME280;7880;50.110;9.372;2023-05-25T03:52:03;5.157805907871807;;;5.062;100.0
15558;BME280;7880;50.110;9.372;2023-05-25T03:57:07;5.233435826213099;;;5.125;100.0
15558;BME280;7880;50.110;9.372;2023-05-25T04:02:13;5.097302020346978;;;5.125;100.0
15558;BME280;7880;50.110;9.372;2023-05-25T04:06:09;5.278813808650011;;;5.25;100.0
15558;BME280;7880;50.110;9.372;2023-05-25T04:11:14;5.47545200495515;;;5.437;100.0
15558;BME280;7880;50.110;9.372;2023-05-25T04:16:21;5.581334294012049;;;5.625;100.0
15558;BME280;7880;50.110;9.372;2023-05-25T04:21:26;5.823351436672965;;;5.75;100.0
15558;BME280;7880;50.110;9.372;2023-05-25T04:26:33;5.692258734494681;;;5.687;100.0
15558;BME280;7880;50.110;9.372;2023-05-25T04:31:55;5.73259492959478;;;5.687;100.0
15558;BME280;7880;50.110;9.372;2023-05-25T04:36:47;5.904023966571549;;;5.875;100.0
15558;BME280;7880;50.110;9.372;2023-05-25T04:41:52;5.8536036266537845;;;5.875;100.0
15558;BME280;7880;50.110;9.372;2023-05-25T04:47:00;6.014948816836113;;;6.0;100.0
15558;BME280;7880;50.110;9.372;2023-05-25T04:52:05;6.1964625120221175;;;6.187;100.0
15558;BME280;7880;50.110;9.372;2023-05-25T04:57:11;6.53932274315157;;;6.5;100.0
15558;BME280;7880;50.110;9.372;2023-05-25T05:02:17;6.756132113281637;;;6.687;100.0
15558;BME280;7880;50.110;9.372;2023-05-25T05:07:23;6.9628578278294295;;;6.875;100.0
15558;BME280;7880;50.110;9.372;2023-05-25T05:17:35;7.754470575437881;;;7.687;100.0
15558;BME280;7880;50.110;9.372;2023-05-25T05:22:41;7.7897655783744995;;;7.75;100.0
15558;BME280;7880;50.110;9.372;2023-05-25T05:27:46;8.636849927116419;;;8.5;100.0
15558;BME280;7880;50.110;9.372;2023-05-25T05:32:52;8.697356266347924;;;8.625;100.0
15558;BME280;7880;50.110;9.372;2023-05-25T05:37:58;9.075521836057305;;;9.125;100.0
15558;BME280;7880;50.110;9.372;2023-05-25T05:43:08;9.110817372758174;;;9.125;100.0
15558;BME280;7880;50.110;9.372;2023-05-25T05:48:10;9.191492938768352;;;9.187;100.0
15558;BME280;7880;50.110;9.372;2023-05-25T05:53:21;9.362928763922536;;;9.375;100.0
15558;BME280;7880;50.110;9.372;2023-05-25T05:58:22;9.448646802664735;;;9.5;100.0
15558;BME280;7880;50.110;9.372;2023-05-25T06:03:29;9.731012701638974;;;9.687;100.0
15558;BME280;7880;50.110;9.372;2023-05-25T06:08:36;9.912534118653275;;;9.937;100.0
15558;BME280;7880;50.110;9.372;2023-05-25T06:13:44;10.189859234081814;;;10.25;100.0
15558;BME280;7880;50.110;9.372;2023-05-25T06:18:44;10.532735139370198;;;10.5;100.0
15558;BME280;7880;50.110;9.372;2023-05-25T06:23:51;10.749554421100765;;;10.75;100.0
15558;BME280;7880;50.110;9.372;2023-05-25T06:28:57;10.931077954545618;;;10.937;100.0
15558;BME280;7880;50.110;9.372;2023-05-25T06:34:13;11.238660358363996;;;11.187;100.0
15558;BME280;7880;50.110;9.372;2023-05-25T06:39:06;11.33950728388154;;;11.375;100.0
15558;BME280;7880;50.110;9.372;2023-05-25T06:44:12;11.60170983505086;;;11.625;100.0
15558;BME280;7880;50.110;9.372;2023-05-25T06:49:18;11.793319889350096;;;11.75;100.0
15558;BME280;7880;50.110;9.372;2023-05-25T06:54:24;11.934506514068925;;;11.937;100.0
15558;BME280;7880;50.110;9.372;2023-05-25T06:59:30;12.186626054305815;;;12.187;100.0
15558;BME280;7880;50.110;9.372;2023-05-25T07:04:36;12.433703909651376;;;12.375;99.09580350827144
15558;BME280;7880;50.110;9.372;2023-05-25T07:09:48;12.620273365505273;;;12.562;96.89168344976797
15558;BME280;7880;50.110;9.372;2023-05-25T07:14:47;12.680782463779906;;;12.687;94.77778729166523
15558;BME280;7880;50.110;9.372;2023-05-25T07:19:53;12.98332858379581;;;12.875;93.86083630741378
15558;BME280;7880;50.110;9.372;2023-05-25T07:24:59;13.03879548611585;;;13.062;90.81031422856371
15558;BME280;7880;50.110;9.372;2023-05-25T07:30:04;13.396809975575888;;;13.312;94.23596545178178
15558;BME280;7880;50.110;9.372;2023-05-25T07:35:09;13.396809975575888;;;13.437;90.85458646607168
15558;BME280;7880;50.110;9.372;2023-05-25T07:40:15;13.72457100583706;;;13.625;88.336421005593
15558;BME280;7880;50.110;9.372;2023-05-25T07:45:21;13.699358575238147;;;13.75;87.34645024794995
15558;BME280;7880;50.110;9.372;2023-05-25T07:50:32;14.259076246712358;;;14.125;89.37666335778344
15558;BME280;7880;50.110;9.372;2023-05-25T07:55:36;14.027120740548707;;;14.0;88.08681131911676
15558;BME280;7880;50.110;9.372;2023-05-25T08:00:53;14.28428883883753;;;14.25;84.49484718379
15558;BME280;7880;50.110;9.372;2023-05-25T08:05:55;14.319586480036378;;;14.312;84.69444042709229
15558;BME280;7880;50.110;9.372;2023-05-25T08:10:52;14.586840511864285;;;14.5;85.46992106625203
15558;BME280;7880;50.110;9.372;2023-05-25T08:16:01;14.637265892565484;;;14.75;86.90965481766607
15558;BME280;7880;50.110;9.372;2023-05-25T08:21:04;14.586840511864285;;;14.562;81.77361854972689
15558;BME280;7880;50.110;9.372;2023-05-25T08:26:12;14.722989106550813;;;14.75;81.06664803523809
15558;BME280;7880;50.110;9.372;2023-05-25T08:31:15;15.010414614301407;;;14.812;82.91457887997846
15558;BME280;7880;50.110;9.372;2023-05-25T08:36:19;15.136478731804527;;;14.937;79.30361577200243
15558;BME280;7880;50.110;9.372;2023-05-25T08:41:25;15.176819287822582;;;15.062;80.67178977091723
15558;BME280;7880;50.110;9.372;2023-05-25T08:46:32;14.566670367732877;;;14.625;83.59895370983942
15558;BME280;7880;50.110;9.372;2023-05-25T08:51:41;14.869223018648336;;;14.812;83.76361339551917
15558;BME280;7880;50.110;9.372;2023-05-25T08:56:49;14.748201832553605;;;14.75;83.01959636171584
15558;BME280;7880;50.110;9.372;2023-05-25T09:01:55;14.985201812628656;;;14.875;82.91194087161082
15558;BME280;7880;50.110;9.372;2023-05-25T09:06:57;15.262543031206587;;;15.125;81.76836831467921
15558;BME280;7880;50.110;9.372;2023-05-25T09:12:04;15.918080320308217;;;15.812;79.07035410593238
15558;BME280;7880;50.110;9.372;2023-05-25T09:17:09;15.681077809655108;;;15.812;79.94603862123361
15558;BME280;7880;50.110;9.372;2023-05-25T09:22:13;15.62056663336698;;;15.437;85.4939215592334
15558;BME280;7880;50.110;9.372;2023-05-25T09:27:21;15.887824644852662;;;15.75;83.5427325861759
15558;BME280;7880;50.110;9.372;2023-05-25T09:32:31;16.180296613142126;;;15.937;82.38812158355952
15558;BME280;7880;50.110;9.372;2023-05-25T09:37:32;16.382001989294075;;;16.312;80.07817291260464
15558;BME280;7880;50.110;9.372;2023-05-25T09:42:37;16.09961459306651;;;16.25;78.52357630043608
15558;BME280;7880;50.110;9.372;2023-05-25T09:47:40;15.96850646935054;;;15.875;79.88364214129527
15558;BME280;7880;50.110;9.372;2023-05-25T09:52:45;16.765243486879626;;;16.312;82.39490108661732
15558;BME280;7880;50.110;9.372;2023-05-25T09:57:53;16.96190753960982;;;16.812;77.34585613069075
15558;BME280;7880;50.110;9.372;2023-05-25T10:02:57;17.037547677761175;;;16.937;76.73377619867388
15558;BME280;7880;50.110;9.372;2023-05-25T10:08:05;17.34010888520279;;;17.125;78.35709042679198
15558;BME280;7880;50.110;9.372;2023-05-25T10:13:09;17.19387083745096;;;17.0;77.87392509268531
15558;BME280;7880;50.110;9.372;2023-05-25T10:18:16;16.331575601600342;;;16.437;76.52133350658804
15558;BME280;7880;50.110;9.372;2023-05-25T10:23:22;17.309852717310424;;;17.187;75.13450009951778
15558;BME280;7880;50.110;9.372;2023-05-25T10:28:35;16.95686486606137;;;16.937;74.33013142728194
15558;BME280;7880;50.110;9.372;2023-05-25T10:33:32;17.66284199464717;;;17.25;77.14766468129696
15558;BME280;7880;50.110;9.372;2023-05-25T10:38:40;17.90489260904142;;;17.812;72.49364211766745
15558;BME280;7880;50.110;9.372;2023-05-25T10:43:48;17.33002349474118;;;17.437;75.21102189562903
15558;BME280;7880;50.110;9.372;2023-05-25T10:48:51;17.178742777515435;;;16.937;76.95458104782803
15558;BME280;7880;50.110;9.372;2023-05-25T10:53:58;17.385493156686426;;;17.312;74.40355608039218
15558;BME280;7880;50.110;9.372;2023-05-25T10:59:05;17.91497806585976;;;17.625;79.25475069199302
15558;BME280;7880;50.110;9.372;2023-05-25T11:04:14;17.758653615997172;;;17.687;76.55766361484406
15558;BME280;7880;50.110;9.372;2023-05-25T11:09:26;18.071302795410155;;;18.0;72.45865417368996
15558;BME280;7880;50.110;9.372;2023-05-25T11:14:22;18.48480826711748;;;18.25;74.31889370146514
15558;BME280;7880;50.110;9.372;2023-05-25T11:19:38;18.141901152045467;;;18.312;67.55404518326583
15558;BME280;7880;50.110;9.372;2023-05-25T11:28:30;17.77378177634091;;;17.75;71.78738550996503
15558;BME280;7880;50.110;9.372;2023-05-25T11:33:33;17.77378177634091;;;17.75;69.5436600451056
15558;BME280;7880;50.110;9.372;2023-05-25T11:38:41;17.65275656693266;;;17.437;72.29702790785666
15558;BME280;7880;50.110;9.372;2023-05-25T11:43:45;17.97549083121703;;;17.812;70.91394787269552
15558;BME280;7880;50.110;9.372;2023-05-25T11:48:52;18.252841542009264;;;18.062;69.31574830481469
15558;BME280;7880;50.110;9.372;2023-05-25T11:53:56;18.53019313319237;;;18.312;72.09823066797722
15558;BME280;7880;50.110;9.372;2023-05-25T11:59:00;18.23267055153847;;;18.375;67.47438340609789
15558;BME280;7880;50.110;9.372;2023-05-25T12:04:08;18.192328584566713;;;18.062;69.45079995340933
15558;BME280;7880;50.110;9.372;2023-05-25T12:09:12;18.97395751029835;;;18.812;66.83663382644619
15558;BME280;7880;50.110;9.372;2023-05-25T12:14:20;19.14036973277107;;;19.0;69.6589976465603
15558;BME280;7880;50.110;9.372;2023-05-25T12:19:20;18.267969787918265;;;18.562;66.64493861178029
15558;BME280;7880;50.110;9.372;2023-05-25T12:24:26;18.419252391072224;;;18.437;67.5997798581746
15558;BME280;7880;50.110;9.372;2023-05-25T12:29:31;18.58062078981311;;;18.5;67.90071949597619
15558;BME280;7880;50.110;9.372;2023-05-25T12:34:37;18.4142096334137;;;18.25;68.67816146142697
15558;BME280;7880;50.110;9.372;2023-05-25T12:39:45;18.923529626667733;;;18.812;68.15531034303893
15558;BME280;7880;50.110;9.372;2023-05-25T12:44:53;18.31335454136133;;;18.375;69.73308756158927
15558;BME280;7880;50.110;9.372;2023-05-25T12:50:13;19.26139700273052;;;19.062;67.66778174384112
15558;BME280;7880;50.110;9.372;2023-05-25T12:55:19;19.39755288181477;;;19.375;68.18803022475896
15558;BME280;7880;50.110;9.372;2023-05-25T13:00:05;18.681476190366084;;;18.812;67.77875663070841
15558;BME280;7880;50.110;9.372;2023-05-25T13:05:16;19.447981039021396;;;19.25;68.75628583927255
15558;BME280;7880;50.110;9.372;2023-05-25T13:10:13;18.78233170733438;;;18.875;67.22693499016808
15558;BME280;7880;50.110;9.372;2023-05-25T13:15:18;19.473195128538645;;;19.312;66.67046825546282
15558;BME280;7880;50.110;9.372;2023-05-25T13:20:27;19.53370897306595;;;19.437;67.2718661377967
15558;BME280;7880;50.110;9.372;2023-05-25T13:25:30;19.35721037700423;;;19.437;63.632200321475175
15558;BME280;7880;50.110;9.372;2023-05-25T13:30:36;19.236182974331314;;;19.25;63.02741045271572
15558;BME280;7880;50.110;9.372;2023-05-25T13:35:57;19.079856160655616;;;19.062;66.15531066191183
15558;BME280;7880;50.110;9.372;2023-05-25T13:40:48;18.79241726543405;;;18.812;66.70640404656079
15558;BME280;7880;50.110;9.372;2023-05-25T13:45:56;18.97395751029835;;;19.0;66.04631343575872
15558;BME280;7880;50.110;9.372;2023-05-25T13:51:11;19.538751795334974;;;19.25;67.04615618773542
15558;BME280;7880;50.110;9.372;2023-05-25T13:56:03;18.968914720625616;;;18.937;66.40622194823604
15558;BME280;7880;50.110;9.372;2023-05-25T14:01:11;19.170626534544862;;;19.125;65.23044094035741
15558;BME280;7880;50.110;9.372;2023-05-25T14:06:13;19.50345204556361;;;19.375;65.92959399501123
15558;BME280;7880;50.110;9.372;2023-05-25T14:11:19;19.377381627081196;;;19.375;63.5956842794054
15558;BME280;7880;50.110;9.372;2023-05-25T14:16:24;19.417724141204964;;;19.312;65.61730217319871
15558;BME280;7880;50.110;9.372;2023-05-25T14:21:30;19.861493025912203;;;19.625;66.01706946930253
15558;BME280;7880;50.110;9.372;2023-05-25T14:26:34;20.143892580555985;;;20.0;65.26943122029996
15558;BME280;7880;50.110;9.372;2023-05-25T14:31:36;20.022864088235657;;;20.062;63.24508400297024
15558;BME280;7880;50.110;9.372;2023-05-25T14:36:45;19.720293590851362;;;19.812;64.5103790900437
15558;BME280;7880;50.110;9.372;2023-05-25T14:41:45;19.962349904939764;;;19.875;63.187667774932386
15558;BME280;7880;50.110;9.372;2023-05-25T14:46:50;19.846364504098894;;;19.687;65.13780251694473
15558;BME280;7880;50.110;9.372;2023-05-25T14:51:54;19.488323585741455;;;19.562;63.34359317224256
15558;BME280;7880;50.110;9.372;2023-05-25T14:57:01;19.861493025912203;;;19.75;63.289721406903126
15558;BME280;7880;50.110;9.372;2023-05-25T15:02:06;19.639608301833505;;;19.625;62.921184827921955
15558;BME280;7880;50.110;9.372;2023-05-25T15:07:10;19.765679098665714;;;19.625;64.50773568005603
15558;BME280;7880;50.110;9.372;2023-05-25T15:12:18;20.143892580555985;;;20.062;63.32218470690419
15558;BME280;7880;50.110;9.372;2023-05-25T15:17:21;19.669865276484053;;;19.75;61.9578803025479
15558;BME280;7880;50.110;9.372;2023-05-25T15:22:35;19.740464924747357;;;19.625;63.29351790360946
15558;BME280;7880;50.110;9.372;2023-05-25T15:27:31;19.846364504098894;;;19.812;63.83339822686913
15558;BME280;7880;50.110;9.372;2023-05-25T15:32:39;19.296696654713013;;;19.25;63.655570032126164
15558;BME280;7880;50.110;9.372;2023-05-25T15:37:40;20.179192589060403;;;20.0;63.89614820206332
15558;BME280;7880;50.110;9.372;2023-05-25T15:42:44;19.40763851092779;;;19.562;63.7105655823712
15558;BME280;7880;50.110;9.372;2023-05-25T15:50:02;19.89679292032961;;;19.812;63.63147601657151
15558;BME280;7880;50.110;9.372;2023-05-25T15:55:07;19.982521294715117;;;19.937;62.509133529906364
15558;BME280;7880;50.110;9.372;2023-05-25T16:01:16;19.997649840102532;;;19.875;63.62118818845697
15558;BME280;7880;50.110;9.372;2023-05-25T16:06:21;19.705165093485267;;;19.687;63.711894997490276
15558;BME280;7880;50.110;9.372;2023-05-25T16:11:27;19.538751795334974;;;19.625;63.750606122093025
15558;BME280;7880;50.110;9.372;2023-05-25T16:16:37;19.523623329401016;;;19.5;64.23454081792414
15558;BME280;7880;50.110;9.372;2023-05-25T16:21:38;19.629522645944963;;;19.5;64.93585171098587
15558;BME280;7880;50.110;9.372;2023-05-25T16:26:41;19.04455659627565;;;19.125;65.12574402228206
15558;BME280;7880;50.110;9.372;2023-05-25T16:32:02;19.589180034032324;;;19.375;65.34808537076076
15558;BME280;7880;50.110;9.372;2023-05-25T16:36:39;19.624479818437248;;;19.562;66.10963136710139
15558;BME280;7880;50.110;9.372;2023-05-25T16:41:45;19.46815231005312;;;19.375;66.21802048555321
15558;BME280;7880;50.110;9.372;2023-05-25T16:46:50;19.715250758104958;;;19.625;66.23394002020079
15558;BME280;7880;50.110;9.372;2023-05-25T16:51:58;19.367296001460637;;;19.312;66.26533052797059
15558;BME280;7880;50.110;9.372;2023-05-25T16:57:03;19.165583733521636;;;19.125;67.1558308736897
15558;BME280;7880;50.110;9.372;2023-05-25T17:02:09;19.13532693349407;;;19.0;67.64309705510432
15558;BME280;7880;50.110;9.372;2023-05-25T17:07:14;19.155498132348292;;;19.062;67.78963118727783
15558;BME280;7880;50.110;9.372;2023-05-25T17:12:20;19.014299838157605;;;18.937;68.03797660818113
15558;BME280;7880;50.110;9.372;2023-05-25T17:17:26;19.165583733521636;;;19.0;70.38079603968119
15558;BME280;7880;50.110;9.372;2023-05-25T17:22:30;19.04959939031396;;;19.0;68.63156942820211
15558;BME280;7880;50.110;9.372;2023-05-25T17:27:35;18.7772889287211;;;18.687;70.02996327672335
15558;BME280;7880;50.110;9.372;2023-05-25T17:32:42;18.847887855791488;;;18.687;70.56663822059674
15558;BME280;7880;50.110;9.372;2023-05-25T17:37:48;18.515064841881394;;;18.5;69.58147066885374
15558;BME280;7880;50.110;9.372;2023-05-25T17:42:50;18.373867582622914;;;18.375;71.05672608680709
15558;BME280;7880;50.110;9.372;2023-05-25T17:48:01;18.388995849486673;;;18.25;71.95317911273136
15558;BME280;7880;50.110;9.372;2023-05-25T17:53:07;18.20241407456342;;;18.062;73.04222394544348
15558;BME280;7880;50.110;9.372;2023-05-25T17:58:10;18.172157608065753;;;18.125;72.19343165800248
15558;BME280;7880;50.110;9.372;2023-05-25T18:03:14;18.131815669033678;;;18.0;73.98968751491685
15558;BME280;7880;50.110;9.372;2023-05-25T18:08:24;18.20241407456342;;;18.062;74.26860904783148
15558;BME280;7880;50.110;9.372;2023-05-25T18:13:26;17.597286735312082;;;17.562;76.26013949587286
15558;BME280;7880;50.110;9.372;2023-05-25T18:18:27;17.642671140382298;;;17.5;77.50915292334679
15558;BME280;7880;50.110;9.372;2023-05-25T18:23:33;17.66284199464717;;;17.5;77.55906925674782
15558;BME280;7880;50.110;9.372;2023-05-25T18:28:37;17.4510482571146;;;17.437;77.85484303641714
15558;BME280;7880;50.110;9.372;2023-05-25T18:34:00;17.385493156686426;;;17.25;77.30423012875478
15558;BME280;7880;50.110;9.372;2023-05-25T18:39:04;17.521646112581948;;;17.312;77.76519123779487
15558;BME280;7880;50.110;9.372;2023-05-25T18:44:08;17.385493156686426;;;17.25;78.64954437400357
15558;BME280;7880;50.110;9.372;2023-05-25T18:49:19;17.077889111550757;;;16.937;80.26314185597742
15558;BME280;7880;50.110;9.372;2023-05-25T18:54:17;16.795499466179173;;;16.75;81.04002113200855
15558;BME280;7880;50.110;9.372;2023-05-25T18:59:20;16.89635280618095;;;16.75;81.46556897303851
15558;BME280;7880;50.110;9.372;2023-05-25T19:04:30;16.709774218709207;;;16.562;82.38389861305278
15558;BME280;7880;50.110;9.372;2023-05-25T19:09:30;16.392087270325284;;;16.312;84.06379020882478
15558;BME280;7880;50.110;9.372;2023-05-25T19:14:36;16.049188368354226;;;16.125;86.56577871801399
15558;BME280;7880;50.110;9.372;2023-05-25T19:19:43;15.80714289486059;;;15.812;88.92532191733652
15558;BME280;7880;50.110;9.372;2023-05-25T19:24:46;16.170211356558138;;;15.937;87.4978660678564
15558;BME280;7880;50.110;9.372;2023-05-25T19:29:49;16.008847409539158;;;15.812;89.17182080199234
15558;BME280;7880;50.110;9.372;2023-05-25T19:34:52;15.80714289486059;;;15.687;91.28382777435964
15558;BME280;7880;50.110;9.372;2023-05-25T19:40:00;15.822270717308857;;;15.562;91.71482309365297
15558;BME280;7880;50.110;9.372;2023-05-25T19:45:03;15.62560922979028;;;15.437;94.24178601242201
15558;BME280;7880;50.110;9.372;2023-05-25T19:50:08;15.590311060938983;;;15.375;93.78745951772333
15558;BME280;7880;50.110;9.372;2023-05-25T19:55:12;15.615524037234717;;;15.375;93.18209234085737
15558;BME280;7880;50.110;9.372;2023-05-25T20:00:26;15.020499737007777;;;15.0;98.27689248776639
15558;BME280;7880;50.110;9.372;2023-05-25T20:05:33;15.040669985912974;;;15.0;98.27970037512044
15558;BME280;7880;50.110;9.372;2023-05-25T20:10:39;15.146563869062811;;;14.937;96.81072784953284
15558;BME280;7880;50.110;9.372;2023-05-25T20:15:45;14.74315928677097;;;14.687;100.0
15558;BME280;7880;50.110;9.372;2023-05-25T20:20:50;15.075967932702042;;;14.875;98.26350138558388
15558;BME280;7880;50.110;9.372;2023-05-25T20:25:56;14.687691302370514;;;14.625;100.0
15558;BME280;7880;50.110;9.372;2023-05-25T20:31:02;14.773414565832354;;;14.625;100.0
15558;BME280;7880;50.110;9.372;2023-05-25T20:36:07;14.6776062180812;;;14.5;100.0
15558;BME280;7880;50.110;9.372;2023-05-25T20:41:13;14.864180465880782;;;14.687;100.0
15558;BME280;7880;50.110;9.372;2023-05-25T20:46:18;14.51624502777704;;;14.375;100.0
15558;BME280;7880;50.110;9.372;2023-05-25T20:51:24;14.28428883883753;;;14.187;100.0
15558;BME280;7880;50.110;9.372;2023-05-25T20:56:35;14.299416397605091;;;14.125;100.0
15558;BME280;7880;50.110;9.372;2023-05-25T21:01:37;14.405309382319682;;;14.187;100.0
15558;BME280;7880;50.110;9.372;2023-05-25T21:06:42;14.1279708849499;;;14.062;100.0
15558;BME280;7880;50.110;9.372;2023-05-25T21:11:48;13.94139820933924;;;13.937;100.0
15558;BME280;7880;50.110;9.372;2023-05-25T21:16:54;13.961568209115649;;;13.875;100.0
15558;BME280;7880;50.110;9.372;2023-05-25T21:22:01;13.699358575238147;;;13.625;100.0
15558;BME280;7880;50.110;9.372;2023-05-25T21:27:05;13.785080868960359;;;13.625;100.0
15558;BME280;7880;50.110;9.372;2023-05-25T21:32:10;13.79516585022211;;;13.562;100.0
15558;BME280;7880;50.110;9.372;2023-05-25T21:37:15;13.598508925602072;;;13.5;100.0
15558;BME280;7880;50.110;9.372;2023-05-25T21:40:50;13.497659392381319;;;13.375;100.0
15558;BME280;7880;50.110;9.372;2023-05-25T21:45:55;13.391767507791519;;;13.25;100.0
15558;BME280;7880;50.110;9.372;2023-05-25T21:51:00;13.517829289712244;;;13.25;100.0
15558;BME280;7880;50.110;9.372;2023-05-25T21:56:05;13.316130525950575;;;13.125;100.0
15558;BME280;7880;50.110;9.372;2023-05-25T22:01:11;13.200153947644868;;;13.062;100.0
15558;BME280;7880;50.110;9.372;2023-05-25T22:06:17;13.114432227850193;;;13.0;100.0
15558;BME280;7880;50.110;9.372;2023-05-25T22:11:24;13.124517131695757;;;12.937;100.0
15558;BME280;7880;50.110;9.372;2023-05-25T22:16:29;13.179984123655595;;;13.0;100.0
15558;BME280;7880;50.110;9.372;2023-05-25T22:21:36;13.174941668385873;;;12.937;100.0
15558;BME280;7880;50.110;9.372;2023-05-25T22:26:43;12.84718270013109;;;12.687;100.0